createdAt,value
2022-12-11T00:02:58.168Z,6.10
2022-12-11T00:08:01.608Z,6.20
2022-12-11T00:13:04.998Z,6.30
2022-12-11T00:18:08.379Z,6.10
2022-12-11T00:23:11.854Z,6.00
2022-12-11T00:28:15.247Z,6.30
2022-12-11T00:33:18.704Z,6.20
2022-12-11T00:38:22.178Z,5.70
2022-12-11T00:43:25.522Z,6.40
2022-12-11T00:48:28.959Z,6.00
2022-12-11T00:53:32.335Z,6.20
2022-12-11T00:58:35.704Z,5.50
2022-12-11T01:03:39.102Z,6.00
2022-12-11T01:08:42.491Z,5.40
2022-12-11T01:13:46.300Z,5.80
2022-12-11T01:18:49.684Z,5.20
2022-12-11T01:23:53.065Z,5.20
2022-12-11T01:28:56.531Z,5.10
2022-12-11T01:33:59.930Z,5.70
2022-12-11T01:39:03.337Z,5.50
2022-12-11T01:44:06.697Z,5.40
2022-12-11T01:49:10.093Z,5.00
2022-12-11T01:54:13.459Z,5.20
2022-12-11T01:59:16.806Z,5.60
2022-12-11T02:04:20.306Z,5.00
2022-12-11T02:09:23.708Z,5.60
2022-12-11T02:14:29.905Z,5.30
2022-12-11T02:19:35.751Z,5.50
2022-12-11T02:24:40.215Z,5.20
2022-12-11T02:29:43.592Z,5.30
2022-12-11T02:34:46.945Z,5.40
2022-12-11T02:39:50.307Z,4.90
2022-12-11T02:44:53.761Z,5.60
2022-12-11T02:49:57.180Z,5.00
2022-12-11T02:55:01.855Z,5.10
2022-12-11T03:00:05.264Z,5.80
2022-12-11T03:05:09.302Z,5.30
2022-12-11T03:10:14.514Z,5.10
2022-12-11T03:15:17.892Z,5.20
2022-12-11T03:20:21.397Z,5.10
2022-12-11T03:25:25.063Z,4.70
2022-12-11T03:30:28.535Z,5.40
2022-12-11T03:35:35.009Z,5.10
2022-12-11T03:40:38.419Z,5.10
2022-12-11T03:45:41.903Z,5.20
2022-12-11T03:50:45.307Z,5.10
2022-12-11T03:55:48.704Z,4.80
2022-12-11T04:00:52.075Z,5.70
2022-12-11T04:05:57.901Z,5.50
2022-12-11T04:11:19.108Z,5.30
2022-12-11T04:16:22.546Z,5.70
2022-12-11T04:21:43.379Z,5.70
2022-12-11T04:26:46.783Z,5.30
2022-12-11T04:31:50.657Z,5.50
2022-12-11T04:36:54.194Z,5.20
2022-12-11T04:41:57.697Z,5.80
2022-12-11T04:47:03.128Z,5.10
2022-12-11T04:52:08.380Z,5.80
2022-12-11T04:57:14.308Z,5.40
2022-12-11T05:02:18.799Z,5.40
2022-12-11T05:07:22.207Z,5.30
2022-12-11T05:12:27.278Z,5.10
2022-12-11T05:17:30.764Z,6.00
2022-12-11T05:22:34.350Z,6.70
2022-12-11T05:27:37.911Z,5.70
2022-12-11T05:32:41.333Z,6.30
2022-12-11T05:37:44.751Z,5.90
2022-12-11T05:42:48.226Z,5.80
2022-12-11T05:47:51.667Z,5.90
2022-12-11T05:52:55.187Z,6.00
2022-12-11T05:57:58.616Z,6.00
2022-12-11T06:03:02.215Z,5.30
2022-12-11T06:08:07.779Z,6.30
2022-12-11T06:13:11.338Z,5.90
2022-12-11T06:18:14.814Z,5.80
2022-12-11T06:23:18.268Z,6.30
2022-12-11T06:28:21.680Z,5.70
2022-12-11T06:33:25.436Z,5.10
2022-12-11T06:38:28.880Z,6.20
2022-12-11T06:43:32.364Z,5.80
2022-12-11T06:48:40.158Z,5.70
2022-12-11T06:53:44.033Z,5.30
2022-12-11T06:58:50.092Z,5.50
2022-12-11T07:03:56.139Z,5.10
2022-12-11T07:09:01.706Z,5.10
2022-12-11T07:14:05.128Z,5.60
2022-12-11T07:19:08.567Z,5.20
2022-12-11T07:24:12.036Z,5.50
2022-12-11T07:29:15.536Z,5.20
2022-12-11T07:34:18.954Z,6.50
2022-12-11T07:39:22.324Z,6.70
2022-12-11T07:44:25.732Z,5.80
2022-12-11T07:49:29.128Z,6.10
2022-12-11T07:54:32.554Z,6.90
2022-12-11T07:59:35.948Z,6.00
2022-12-11T08:04:39.426Z,6.00
2022-12-11T08:09:42.844Z,5.90
2022-12-11T08:14:46.201Z,6.60
2022-12-11T08:19:49.567Z,6.00
2022-12-11T08:24:52.951Z,5.30
2022-12-11T08:29:56.351Z,5.90
2022-12-11T08:34:59.868Z,5.90
2022-12-11T08:40:04.015Z,5.60
2022-12-11T08:50:11.280Z,5.50
2022-12-11T08:55:14.664Z,5.60
2022-12-11T09:00:18.475Z,5.30
2022-12-11T09:05:21.840Z,4.90
2022-12-11T09:10:25.260Z,5.90
2022-12-11T09:15:28.718Z,5.40
2022-12-11T09:20:32.204Z,5.50
2022-12-11T09:25:35.725Z,6.80
2022-12-11T09:30:39.196Z,8.80
2022-12-11T09:35:43.074Z,7.50
2022-12-11T09:40:46.815Z,8.30
2022-12-11T09:45:50.303Z,7.90
2022-12-11T09:50:54.111Z,8.50
2022-12-11T09:55:57.843Z,13.00
2022-12-11T10:01:01.437Z,11.40
2022-12-11T10:06:05.348Z,9.10
2022-12-11T10:11:08.797Z,8.70
2022-12-11T10:16:12.361Z,9.40
2022-12-11T10:21:15.804Z,9.50
2022-12-11T10:26:19.289Z,9.50
2022-12-11T10:31:22.857Z,9.00
2022-12-11T10:36:26.381Z,8.90
2022-12-11T10:41:29.824Z,8.80
2022-12-11T10:46:33.436Z,8.10
2022-12-11T10:51:37.431Z,7.50
2022-12-11T11:01:53.272Z,7.70
2022-12-11T11:06:56.755Z,7.70
2022-12-11T11:12:05.990Z,7.00
2022-12-11T11:17:11.231Z,8.00
2022-12-11T11:22:14.645Z,7.80
2022-12-11T11:27:18.051Z,7.20
2022-12-11T11:32:21.492Z,6.80
2022-12-11T11:37:24.856Z,6.80
2022-12-11T11:42:29.812Z,7.20
2022-12-11T11:47:33.156Z,6.50
2022-12-11T11:52:36.518Z,6.70
2022-12-11T11:57:42.333Z,7.00
2022-12-11T12:02:47.022Z,6.80
2022-12-11T12:07:50.600Z,6.60
2022-12-11T12:12:54.166Z,7.10
2022-12-11T12:17:57.823Z,7.70
2022-12-11T12:23:01.262Z,6.70
2022-12-11T12:28:04.599Z,7.70
2022-12-11T12:33:08.007Z,7.30
2022-12-11T12:38:11.476Z,7.70
2022-12-11T12:43:14.883Z,7.70
2022-12-11T12:48:18.272Z,7.70
2022-12-11T12:53:21.797Z,7.20
2022-12-11T12:58:25.304Z,8.10
2022-12-11T13:03:30.224Z,7.60
2022-12-11T13:08:33.617Z,7.60
2022-12-11T13:13:37.022Z,8.00
2022-12-11T13:18:40.544Z,8.00
2022-12-11T13:23:44.028Z,8.80
2022-12-11T13:28:47.941Z,9.00
2022-12-11T13:38:54.773Z,9.00
2022-12-11T13:43:58.377Z,7.60
2022-12-11T13:49:01.793Z,8.10
2022-12-11T13:54:05.338Z,9.30
2022-12-11T13:59:08.948Z,8.40
2022-12-11T14:04:12.603Z,8.40
2022-12-11T14:09:15.967Z,8.80
2022-12-11T14:14:19.340Z,8.70
2022-12-11T14:19:22.744Z,8.70
2022-12-11T14:24:26.130Z,9.00
2022-12-11T14:29:29.755Z,9.20
2022-12-11T14:34:33.214Z,9.50
2022-12-11T14:39:36.603Z,8.70
2022-12-11T14:44:40.071Z,8.70
2022-12-11T14:49:43.781Z,9.40
2022-12-11T14:59:56.182Z,8.20
2022-12-11T15:04:59.623Z,8.40
2022-12-11T15:10:04.013Z,8.40
2022-12-11T15:15:07.669Z,8.80
2022-12-11T15:20:12.656Z,8.60
2022-12-11T15:25:16.241Z,9.00
2022-12-11T15:30:19.876Z,9.10
2022-12-11T15:35:23.311Z,8.70
2022-12-11T15:40:26.775Z,8.80
2022-12-11T15:45:30.259Z,9.00
2022-12-11T15:50:33.678Z,9.50
2022-12-11T15:55:37.053Z,10.40
2022-12-11T16:00:40.479Z,10.20
2022-12-11T16:05:43.930Z,9.40
2022-12-11T16:10:47.311Z,9.50
2022-12-11T16:15:50.769Z,10.00
2022-12-11T16:20:54.194Z,10.00
2022-12-11T16:25:57.654Z,9.40
2022-12-11T16:31:01.836Z,9.90
2022-12-11T16:36:05.384Z,10.30
2022-12-11T16:41:08.801Z,9.30
2022-12-11T16:46:12.362Z,9.60
2022-12-11T16:51:15.962Z,10.00
2022-12-11T16:56:19.334Z,10.70
2022-12-11T17:01:22.818Z,10.50
2022-12-11T17:06:26.315Z,9.80
2022-12-11T17:11:29.721Z,11.50
2022-12-11T17:16:33.976Z,10.70
2022-12-11T17:21:37.417Z,10.20
2022-12-11T17:26:40.814Z,10.70
2022-12-11T17:31:44.609Z,11.10
2022-12-11T17:41:51.820Z,11.20
2022-12-11T17:46:55.261Z,11.40
2022-12-11T17:51:58.726Z,10.90
2022-12-11T17:57:02.483Z,11.00
2022-12-11T18:07:09.409Z,74.60
2022-12-11T18:12:12.824Z,63.10
2022-12-11T18:17:16.226Z,58.50
2022-12-11T18:22:19.703Z,54.80
2022-12-11T18:27:23.075Z,49.80
2022-12-11T18:32:26.525Z,48.20
2022-12-11T18:37:30.052Z,46.70
2022-12-11T18:42:33.957Z,43.60
2022-12-11T18:47:38.389Z,42.00
2022-12-11T18:52:41.846Z,39.30
2022-12-11T18:57:45.395Z,36.30
2022-12-11T19:02:48.855Z,34.00
2022-12-11T19:07:52.365Z,32.50
2022-12-11T19:12:55.847Z,33.10
2022-12-11T19:17:59.290Z,30.30
2022-12-11T19:23:02.820Z,29.70
2022-12-11T19:28:06.220Z,25.60
2022-12-11T19:33:09.608Z,25.70
2022-12-11T19:38:13.737Z,23.70
2022-12-11T19:43:17.172Z,21.00
2022-12-11T19:48:20.668Z,21.20
2022-12-11T19:53:24.125Z,19.40
2022-12-11T19:58:27.666Z,17.40
2022-12-11T20:03:31.169Z,18.20
2022-12-11T20:08:49.988Z,18.60
2022-12-11T20:13:55.430Z,16.50
2022-12-11T20:18:58.854Z,18.90
2022-12-11T20:24:02.294Z,16.30
2022-12-11T20:29:07.210Z,15.50
2022-12-11T20:34:11.480Z,17.30
2022-12-11T20:39:15.092Z,15.70
2022-12-11T20:44:20.027Z,15.20
2022-12-11T20:49:23.472Z,15.40
2022-12-11T20:54:27.024Z,15.10
2022-12-11T20:59:30.426Z,13.60
2022-12-11T21:04:33.799Z,13.90
2022-12-11T21:09:37.937Z,13.10
2022-12-11T21:14:42.204Z,13.40
2022-12-11T21:19:45.634Z,12.40
2022-12-11T21:24:49.066Z,11.50
2022-12-11T21:29:52.556Z,12.50
2022-12-11T21:34:56.986Z,11.20
2022-12-11T21:40:00.471Z,10.90
2022-12-11T21:50:27.295Z,10.20
2022-12-11T21:55:30.660Z,10.20
2022-12-11T22:00:34.068Z,9.70
2022-12-11T22:05:37.457Z,9.10
2022-12-11T22:10:40.845Z,9.60
2022-12-11T22:15:44.232Z,9.90
2022-12-11T22:20:47.690Z,9.30
2022-12-11T22:30:54.974Z,8.70
2022-12-11T22:35:58.384Z,8.40
2022-12-11T22:41:02.956Z,7.90
2022-12-11T22:46:06.373Z,7.10
2022-12-11T22:51:09.839Z,8.60
2022-12-11T22:56:13.295Z,8.80
2022-12-11T23:01:16.698Z,8.30
2022-12-11T23:06:20.063Z,8.40
2022-12-11T23:11:24.015Z,8.20
2022-12-11T23:21:31.174Z,7.60
2022-12-11T23:26:34.585Z,7.60
2022-12-11T23:31:38.034Z,7.40
2022-12-11T23:36:41.449Z,7.50
2022-12-11T23:41:44.827Z,7.40
2022-12-11T23:46:48.313Z,7.40
2022-12-11T23:51:51.709Z,7.40
2022-12-11T23:56:55.084Z,7.60
